createdAt,value
2023-02-11T00:02:21.509Z,97022.91
2023-02-11T00:04:49.399Z,97025.94
2023-02-11T00:07:17.244Z,97017.44
2023-02-11T00:09:45.110Z,97024.13
2023-02-11T00:12:12.934Z,97030.19
2023-02-11T00:14:42.474Z,97027.97
2023-02-11T00:17:11.756Z,97021.50
2023-02-11T00:19:40.015Z,97015.59
2023-02-11T00:22:08.010Z,97030.38
2023-02-11T00:24:37.391Z,97034.81
2023-02-11T00:27:05.246Z,97020.84
2023-02-11T00:29:33.117Z,97017.63
2023-02-11T00:32:05.183Z,97024.53
2023-02-11T00:34:35.042Z,97018.44
2023-02-11T00:37:03.173Z,96989.81
2023-02-11T00:39:31.794Z,97020.47
2023-02-11T00:41:59.720Z,97010.94
2023-02-11T00:44:27.680Z,97014.19
2023-02-11T00:46:55.601Z,97014.41
2023-02-11T00:49:23.429Z,97006.28
2023-02-11T00:51:52.630Z,97009.13
2023-02-11T00:54:20.513Z,97001.19
2023-02-11T00:56:48.388Z,97007.28
2023-02-11T00:59:16.234Z,97008.09
2023-02-11T01:01:44.151Z,97016.41
2023-02-11T01:04:12.135Z,97014.19
2023-02-11T01:06:40.024Z,97006.50
2023-02-11T01:09:09.266Z,97008.50
2023-02-11T01:11:37.158Z,96992.28
2023-02-11T01:14:05.045Z,97004.44
2023-02-11T01:16:32.962Z,97009.31
2023-02-11T01:19:03.372Z,97004.44
2023-02-11T01:21:31.256Z,97006.88
2023-02-11T01:23:59.106Z,96999.97
2023-02-11T01:26:28.378Z,97009.69
2023-02-11T01:28:57.141Z,96988.81
2023-02-11T01:31:25.035Z,96985.56
2023-02-11T01:33:53.222Z,96991.03
2023-02-11T01:36:21.106Z,96996.66
2023-02-11T01:38:49.943Z,96993.41
2023-02-11T01:41:17.982Z,96992.16
2023-02-11T01:43:50.640Z,96991.72
2023-02-11T01:46:34.999Z,96975.06
2023-02-11T01:49:07.161Z,96973.81
2023-02-11T01:51:39.817Z,96968.47
2023-02-11T01:54:28.129Z,96990.34
2023-02-11T01:57:16.592Z,96992.59
2023-02-11T01:59:49.678Z,96990.13
2023-02-11T02:02:21.147Z,96988.28
2023-02-11T02:04:55.027Z,96994.72
2023-02-11T02:07:33.854Z,96992.50
2023-02-11T02:10:06.849Z,96995.50
2023-02-11T02:12:34.763Z,96996.72
2023-02-11T02:15:26.564Z,96995.84
2023-02-11T02:18:02.554Z,96959.97
2023-02-11T02:21:05.192Z,96991.44
2023-02-11T02:23:54.238Z,97002.56
2023-02-11T02:26:48.960Z,96995.44
2023-02-11T02:29:52.893Z,96990.53
2023-02-11T02:32:32.599Z,96990.28
2023-02-11T02:35:10.674Z,97000.78
2023-02-11T02:37:44.865Z,96900.63
2023-02-11T02:40:18.105Z,96922.13
2023-02-11T02:42:47.161Z,96989.28
2023-02-11T02:45:15.645Z,96995.50
2023-02-11T02:47:44.855Z,96975.63
2023-02-11T02:50:16.112Z,96996.69
2023-02-11T02:52:52.878Z,96995.69
2023-02-11T02:55:40.416Z,96991.69
2023-02-11T02:58:37.126Z,96993.41
2023-02-11T03:01:13.527Z,97000.03
2023-02-11T03:03:48.993Z,97001.81
2023-02-11T03:06:25.791Z,97004.69
2023-02-11T03:08:59.320Z,96994.75
2023-02-11T03:11:29.198Z,96997.50
2023-02-11T03:13:57.858Z,96997.03
2023-02-11T03:16:29.360Z,96998.06
2023-02-11T03:19:04.245Z,97008.41
2023-02-11T03:21:34.894Z,96993.84
2023-02-11T03:24:07.003Z,97003.16
2023-02-11T03:26:39.634Z,97001.19
2023-02-11T03:29:15.967Z,96942.94
2023-02-11T03:31:53.892Z,96955.50
2023-02-11T03:34:31.160Z,96988.56
2023-02-11T03:37:04.314Z,96954.22
2023-02-11T03:39:36.342Z,96989.78
2023-02-11T03:42:07.090Z,96998.16
2023-02-11T03:44:41.019Z,96956.56
2023-02-11T03:47:11.879Z,96989.81
2023-02-11T03:49:43.461Z,96984.53
2023-02-11T03:52:13.936Z,96974.59
2023-02-11T03:54:44.596Z,96976.53
2023-02-11T03:57:12.685Z,96982.91
2023-02-11T03:59:55.283Z,96990.69
2023-02-11T04:02:24.756Z,96988.19
2023-02-11T04:04:54.048Z,96984.66
2023-02-11T04:07:21.990Z,96999.38
2023-02-11T04:09:49.868Z,96996.50
2023-02-11T04:12:17.834Z,96997.41
2023-02-11T04:14:45.806Z,97003.16
2023-02-11T04:17:14.320Z,96989.66
2023-02-11T04:19:42.674Z,96994.97
2023-02-11T04:22:12.067Z,96990.53
2023-02-11T04:24:40.121Z,96994.53
2023-02-11T04:27:07.959Z,96995.59
2023-02-11T04:29:35.972Z,96983.66
2023-02-11T04:32:03.888Z,96997.22
2023-02-11T04:34:33.030Z,96981.50
2023-02-11T04:37:00.891Z,96994.72
2023-02-11T04:39:30.240Z,96984.69
2023-02-11T04:41:58.104Z,96983.50
2023-02-11T04:44:26.078Z,96973.38
2023-02-11T04:46:54.488Z,96987.13
2023-02-11T04:49:22.386Z,96979.59
2023-02-11T04:51:50.385Z,96957.66
2023-02-11T04:54:18.722Z,96987.31
2023-02-11T04:56:48.117Z,96979.53
2023-02-11T04:59:16.061Z,96986.50
2023-02-11T05:01:44.299Z,96985.78
2023-02-11T05:04:12.279Z,96974.28
2023-02-11T05:06:40.641Z,96982.16
2023-02-11T05:09:09.134Z,96968.91
2023-02-11T05:11:39.401Z,96972.41
2023-02-11T05:14:08.859Z,96973.13
2023-02-11T05:16:37.068Z,96935.91
2023-02-11T05:19:05.333Z,96981.38
2023-02-11T05:21:33.498Z,96980.63
2023-02-11T05:24:01.385Z,96981.81
2023-02-11T05:26:29.503Z,96968.69
2023-02-11T05:28:57.675Z,96983.09
2023-02-11T05:31:26.891Z,96970.00
2023-02-11T05:33:54.768Z,96969.88
2023-02-11T05:36:22.667Z,96971.16
2023-02-11T05:38:51.042Z,96970.78
2023-02-11T05:41:18.928Z,96957.22
2023-02-11T05:43:49.977Z,96969.59
2023-02-11T05:46:18.643Z,96974.16
2023-02-11T05:48:48.086Z,96970.44
2023-02-11T05:51:16.061Z,96983.16
2023-02-11T05:53:44.054Z,97001.41
2023-02-11T05:56:12.565Z,96975.06
2023-02-11T05:58:40.473Z,96982.22
2023-02-11T06:01:08.338Z,96981.50
2023-02-11T06:03:36.496Z,96974.88
2023-02-11T06:06:06.542Z,96990.78
2023-02-11T06:08:34.428Z,96980.88
2023-02-11T06:11:02.272Z,96982.53
2023-02-11T06:13:30.213Z,96980.69
2023-02-11T06:15:58.608Z,96975.22
2023-02-11T06:18:26.688Z,96952.47
2023-02-11T06:20:54.697Z,96980.09
2023-02-11T06:23:24.230Z,96988.53
2023-02-11T06:25:52.592Z,96977.50
2023-02-11T06:28:20.846Z,96981.50
2023-02-11T06:30:48.893Z,96992.50
2023-02-11T06:33:16.989Z,96975.00
2023-02-11T06:35:44.892Z,96985.34
2023-02-11T06:38:12.824Z,96989.56
2023-02-11T06:40:42.084Z,96982.88
2023-02-11T06:43:09.929Z,96992.59
2023-02-11T06:45:37.954Z,96983.03
2023-02-11T06:48:05.965Z,96987.91
2023-02-11T06:50:33.846Z,96989.44
2023-02-11T06:53:01.930Z,96988.09
2023-02-11T06:55:29.962Z,96996.66
2023-02-11T06:57:59.228Z,96989.28
2023-02-11T07:00:29.106Z,96988.09
2023-02-11T07:02:57.256Z,96991.06
2023-02-11T07:05:25.462Z,96998.38
2023-02-11T07:07:53.339Z,96986.13
2023-02-11T07:10:21.585Z,96975.69
2023-02-11T07:12:49.478Z,96991.78
2023-02-11T07:15:18.996Z,96975.34
2023-02-11T07:17:46.916Z,96982.16
2023-02-11T07:20:15.736Z,96985.63
2023-02-11T07:22:43.582Z,96975.09
2023-02-11T07:25:11.570Z,96976.94
2023-02-11T07:27:39.533Z,96973.09
2023-02-11T07:30:08.223Z,96964.28
2023-02-11T07:32:37.526Z,96963.69
2023-02-11T07:35:06.518Z,96962.16
2023-02-11T07:37:34.956Z,96958.25
2023-02-11T07:40:02.933Z,96958.94
2023-02-11T07:42:30.863Z,96955.50
2023-02-11T07:44:58.902Z,96957.00
2023-02-11T07:47:26.889Z,96954.53
2023-02-11T07:49:56.743Z,96952.06
2023-02-11T07:52:25.373Z,96955.16
2023-02-11T07:55:10.691Z,96951.56
2023-02-11T07:57:38.835Z,96950.53
2023-02-11T08:00:07.819Z,96940.91
2023-02-11T08:02:35.856Z,96945.06
2023-02-11T08:05:05.420Z,96940.56
2023-02-11T08:07:33.254Z,96946.25
2023-02-11T08:10:01.189Z,96944.28
2023-02-11T08:12:29.346Z,96907.88
2023-02-11T08:14:57.492Z,96952.88
2023-02-11T08:17:25.785Z,96941.56
2023-02-11T08:19:54.000Z,96937.38
2023-02-11T08:22:23.235Z,96925.97
2023-02-11T08:24:52.476Z,96905.38
2023-02-11T08:27:20.399Z,96937.75
2023-02-11T08:29:48.260Z,96914.19
2023-02-11T08:32:16.192Z,96923.94
2023-02-11T08:34:44.101Z,96914.84
2023-02-11T08:37:13.245Z,96921.59
2023-02-11T08:39:42.596Z,96917.28
2023-02-11T08:42:10.486Z,96932.19
2023-02-11T08:44:38.539Z,96934.91
2023-02-11T08:47:06.782Z,96912.25
2023-02-11T08:49:35.279Z,96933.84
2023-02-11T08:52:04.224Z,96935.50
2023-02-11T08:54:32.663Z,96919.13
2023-02-11T08:57:04.574Z,96930.66
2023-02-11T08:59:32.560Z,96937.53
2023-02-11T09:02:00.518Z,96922.66
2023-02-11T09:04:28.488Z,96927.81
2023-02-11T09:06:56.321Z,96921.34
2023-02-11T09:09:24.420Z,96919.34
2023-02-11T09:11:57.159Z,96922.06
2023-02-11T09:14:26.387Z,96925.81
2023-02-11T09:16:54.514Z,96921.09
2023-02-11T09:19:23.155Z,96911.88
2023-02-11T09:21:51.158Z,96925.09
2023-02-11T09:24:19.583Z,96910.22
2023-02-11T09:26:47.596Z,96903.84
2023-02-11T09:29:15.708Z,96909.91
2023-02-11T09:31:45.188Z,96901.81
2023-02-11T09:34:13.627Z,96854.56
2023-02-11T09:36:41.966Z,96908.56
2023-02-11T09:39:14.033Z,96843.97
2023-02-11T09:42:09.282Z,96891.44
2023-02-11T09:44:38.915Z,96887.31
2023-02-11T09:47:22.282Z,96871.56
2023-02-11T09:49:53.765Z,96880.19
2023-02-11T09:52:31.054Z,96879.59
2023-02-11T09:55:01.018Z,96873.59
2023-02-11T09:57:33.689Z,96864.84
2023-02-11T10:00:02.780Z,96843.38
2023-02-11T10:02:45.018Z,96855.25
2023-02-11T10:05:29.823Z,96850.72
2023-02-11T10:08:04.863Z,96828.31
2023-02-11T10:10:46.494Z,96840.72
2023-02-11T10:13:32.039Z,96842.25
2023-02-11T10:16:09.685Z,96829.72
2023-02-11T10:18:52.193Z,96820.09
2023-02-11T10:21:29.842Z,96756.19
2023-02-11T10:24:02.935Z,96809.19
2023-02-11T10:26:34.379Z,96788.16
2023-02-11T10:29:13.627Z,96794.31
2023-02-11T10:31:45.666Z,96787.13
2023-02-11T10:34:16.395Z,96797.66
2023-02-11T10:36:46.034Z,96773.56
2023-02-11T10:39:16.777Z,96750.78
2023-02-11T10:41:48.478Z,96704.72
2023-02-11T10:44:24.704Z,96675.44
2023-02-11T10:46:53.250Z,96607.78
2023-02-11T10:49:40.441Z,96720.78
2023-02-11T10:52:18.959Z,96735.69
2023-02-11T10:55:03.248Z,96727.31
2023-02-11T10:57:36.039Z,96734.59
2023-02-11T11:00:21.513Z,96712.16
2023-02-11T11:02:56.873Z,96710.47
2023-02-11T11:05:32.594Z,96712.59
2023-02-11T11:08:02.890Z,96713.22
2023-02-11T11:10:43.197Z,96703.25
2023-02-11T11:13:29.183Z,96713.97
2023-02-11T11:16:25.545Z,96685.25
2023-02-11T11:18:55.231Z,96685.34
2023-02-11T11:21:26.572Z,96691.22
2023-02-11T11:23:57.458Z,96679.69
2023-02-11T11:26:28.463Z,96696.41
2023-02-11T11:29:00.104Z,96641.75
2023-02-11T11:31:31.543Z,96657.41
2023-02-11T11:34:01.692Z,96685.56
2023-02-11T11:36:39.186Z,96689.59
2023-02-11T11:39:21.872Z,96620.41
2023-02-11T11:41:55.633Z,96630.78
2023-02-11T11:44:32.987Z,96654.84
2023-02-11T11:47:24.167Z,96643.03
2023-02-11T11:50:07.521Z,96672.63
2023-02-11T11:52:43.727Z,96667.78
2023-02-11T11:55:19.469Z,96665.25
2023-02-11T11:57:47.939Z,96656.03
2023-02-11T12:00:19.351Z,96657.13
2023-02-11T12:03:11.839Z,96648.19
2023-02-11T12:05:49.592Z,96645.88
2023-02-11T12:08:29.908Z,96599.78
2023-02-11T12:11:10.686Z,96636.31
2023-02-11T12:13:55.966Z,96618.88
2023-02-11T12:16:35.041Z,96626.31
2023-02-11T12:19:36.152Z,96610.34
2023-02-11T12:22:11.421Z,96610.16
2023-02-11T12:24:54.498Z,96606.22
2023-02-11T12:27:37.387Z,96546.34
2023-02-11T12:30:20.471Z,96599.66
2023-02-11T12:32:55.216Z,96590.53
2023-02-11T12:35:30.378Z,96597.13
2023-02-11T12:38:15.970Z,96590.31
2023-02-11T12:40:51.623Z,96580.38
2023-02-11T12:43:24.900Z,96573.78
2023-02-11T12:46:21.012Z,96585.19
2023-02-11T12:49:21.202Z,96582.66
2023-02-11T12:52:05.848Z,96563.22
2023-02-11T12:54:41.264Z,96572.06
2023-02-11T12:57:19.588Z,96563.75
2023-02-11T12:59:56.608Z,96564.91
2023-02-11T13:02:34.155Z,96564.91
2023-02-11T13:05:07.001Z,96521.19
2023-02-11T13:07:40.238Z,96557.00
2023-02-11T13:10:23.644Z,96565.91
2023-02-11T13:13:12.962Z,96563.59
2023-02-11T13:15:43.915Z,96559.44
2023-02-11T13:18:25.945Z,96558.13
2023-02-11T13:21:00.876Z,96553.81
2023-02-11T13:23:36.136Z,96549.16
2023-02-11T13:26:11.609Z,96539.31
2023-02-11T13:28:50.254Z,96530.31
2023-02-11T13:31:20.414Z,96556.28
2023-02-11T13:33:49.922Z,96543.06
2023-02-11T13:36:26.457Z,96342.34
2023-02-11T13:39:01.290Z,96542.22
2023-02-11T13:41:33.057Z,96493.34
2023-02-11T13:44:06.488Z,96543.41
2023-02-11T13:46:54.002Z,96535.28
2023-02-11T13:49:25.800Z,96541.44
2023-02-11T13:51:54.888Z,96527.38
2023-02-11T13:54:35.087Z,96519.56
2023-02-11T13:57:37.618Z,96520.88
2023-02-11T14:00:36.585Z,96506.00
2023-02-11T14:03:57.327Z,96517.72
2023-02-11T14:06:47.247Z,96513.16
2023-02-11T14:09:41.681Z,96512.69
2023-02-11T14:12:35.407Z,96514.38
2023-02-11T14:15:37.240Z,96501.28
2023-02-11T14:18:39.616Z,96485.22
2023-02-11T14:21:14.940Z,96497.03
2023-02-11T14:23:43.134Z,96479.34
2023-02-11T14:26:35.075Z,96503.94
2023-02-11T14:29:14.133Z,96507.16
2023-02-11T14:31:47.687Z,96494.84
2023-02-11T14:34:44.918Z,96502.34
2023-02-11T14:37:26.983Z,96508.19
2023-02-11T14:40:06.311Z,96503.13
2023-02-11T14:42:34.496Z,96508.72
2023-02-11T14:45:07.388Z,96503.13
2023-02-11T14:47:42.179Z,96502.81
2023-02-11T14:50:21.062Z,96507.63
2023-02-11T14:52:51.151Z,96506.00
2023-02-11T14:55:30.470Z,96456.19
2023-02-11T14:58:19.476Z,96497.94
2023-02-11T15:00:55.852Z,96484.31
2023-02-11T15:03:36.833Z,96456.72
2023-02-11T15:06:20.497Z,96475.44
2023-02-11T15:08:51.666Z,96492.31
2023-02-11T15:11:22.258Z,96489.38
2023-02-11T15:13:55.580Z,96467.66
2023-02-11T15:16:26.999Z,96492.25
2023-02-11T15:18:58.615Z,96474.88
2023-02-11T15:21:31.492Z,96478.84
2023-02-11T15:24:02.080Z,96471.63
2023-02-11T15:26:30.913Z,96478.53
2023-02-11T15:28:58.785Z,96468.88
2023-02-11T15:31:28.901Z,96471.78
2023-02-11T15:33:56.888Z,96464.84
2023-02-11T15:36:33.203Z,96471.88
2023-02-11T15:39:21.488Z,96437.47
2023-02-11T15:41:49.357Z,96437.09
2023-02-11T15:44:31.723Z,96494.22
2023-02-11T15:47:00.184Z,96458.97
2023-02-11T15:49:28.611Z,96474.69
2023-02-11T15:51:58.866Z,96466.38
2023-02-11T15:54:29.522Z,96463.97
2023-02-11T15:57:05.481Z,96457.19
2023-02-11T15:59:39.859Z,96465.41
2023-02-11T16:02:15.124Z,96482.72
2023-02-11T16:04:52.268Z,96481.41
2023-02-11T16:07:41.438Z,96478.66
2023-02-11T16:10:24.848Z,96469.28
2023-02-11T16:13:03.882Z,96472.84
2023-02-11T16:15:49.481Z,96474.06
2023-02-11T16:18:39.652Z,96480.63
2023-02-11T16:21:16.781Z,96478.69
2023-02-11T16:23:52.444Z,96476.31
2023-02-11T16:26:28.675Z,96483.75
2023-02-11T16:29:05.670Z,96477.88
2023-02-11T16:31:35.116Z,96477.00
2023-02-11T16:34:03.032Z,96483.75
2023-02-11T16:36:31.355Z,96474.19
2023-02-11T16:39:00.708Z,96481.22
2023-02-11T16:41:28.744Z,96410.38
2023-02-11T16:43:58.866Z,96486.31
2023-02-11T16:46:27.802Z,96484.91
2023-02-11T16:48:57.846Z,96428.63
2023-02-11T16:51:26.370Z,96477.03
2023-02-11T16:53:54.343Z,96456.88
2023-02-11T16:56:23.600Z,96479.94
2023-02-11T16:58:51.480Z,96485.44
2023-02-11T17:01:19.494Z,96452.38
2023-02-11T17:03:47.532Z,96483.72
2023-02-11T17:06:15.748Z,96481.84
2023-02-11T17:08:44.477Z,96477.28
2023-02-11T17:11:16.724Z,96479.66
2023-02-11T17:13:46.014Z,96468.63
2023-02-11T17:16:19.253Z,96451.13
2023-02-11T17:18:47.864Z,96465.13
2023-02-11T17:21:15.931Z,96460.75
2023-02-11T17:23:45.917Z,96463.19
2023-02-11T17:26:14.019Z,96443.16
2023-02-11T17:28:41.967Z,96475.81
2023-02-11T17:31:11.611Z,96475.97
2023-02-11T17:33:39.570Z,96485.03
2023-02-11T17:36:08.746Z,96483.97
2023-02-11T17:38:37.692Z,96481.00
2023-02-11T17:41:07.392Z,96486.25
2023-02-11T17:43:35.769Z,96485.16
2023-02-11T17:46:07.691Z,96473.81
2023-02-11T17:48:38.312Z,96490.88
2023-02-11T17:51:08.836Z,96457.66
2023-02-11T17:53:37.310Z,96485.47
2023-02-11T17:56:07.311Z,96496.13
2023-02-11T17:58:35.175Z,96498.28
2023-02-11T18:01:03.658Z,96504.78
2023-02-11T18:03:31.839Z,96446.06
2023-02-11T18:06:02.949Z,96493.47
2023-02-11T18:08:31.271Z,96506.81
2023-02-11T18:10:59.533Z,96485.03
2023-02-11T18:13:27.688Z,96513.69
2023-02-11T18:15:55.872Z,96478.91
2023-02-11T18:18:24.019Z,96481.56
2023-02-11T18:20:57.825Z,96453.03
2023-02-11T18:23:27.502Z,96484.63
2023-02-11T18:25:55.441Z,96505.00
2023-02-11T18:28:23.447Z,96486.19
2023-02-11T18:30:58.293Z,96496.41
2023-02-11T18:33:26.466Z,96464.63
2023-02-11T18:35:54.867Z,96489.00
2023-02-11T18:38:23.244Z,96485.69
2023-02-11T18:40:53.345Z,96464.78
2023-02-11T18:43:21.603Z,96472.50
2023-02-11T18:45:51.472Z,96482.88
2023-02-11T18:48:20.138Z,96440.22
2023-02-11T18:50:48.142Z,96467.31
2023-02-11T18:53:16.764Z,96472.91
2023-02-11T18:55:46.093Z,96467.56
2023-02-11T18:58:16.506Z,96477.16
2023-02-11T19:00:46.910Z,96388.41
2023-02-11T19:03:15.019Z,96479.41
2023-02-11T19:05:43.518Z,96463.66
2023-02-11T19:08:11.585Z,96440.03
2023-02-11T19:10:42.448Z,96414.69
2023-02-11T19:13:10.738Z,96442.59
2023-02-11T19:15:43.763Z,96471.47
2023-02-11T19:18:12.298Z,96457.56
2023-02-11T19:20:40.782Z,96440.59
2023-02-11T19:23:10.285Z,96459.72
2023-02-11T19:25:38.810Z,96461.28
2023-02-11T19:28:07.030Z,96460.13
2023-02-11T19:30:37.104Z,96452.03
2023-02-11T19:33:09.733Z,96455.63
2023-02-11T19:35:38.073Z,96453.53
2023-02-11T19:38:06.547Z,96450.31
2023-02-11T19:40:34.583Z,96439.06
2023-02-11T19:43:02.476Z,96445.44
2023-02-11T19:45:30.375Z,96434.63
2023-02-11T19:47:59.026Z,96433.09
2023-02-11T19:50:28.691Z,96428.19
2023-02-11T19:52:56.542Z,96426.25
2023-02-11T19:55:25.068Z,96435.03
2023-02-11T19:57:52.904Z,96429.78
2023-02-11T20:00:21.717Z,96428.88
2023-02-11T20:02:49.644Z,96431.41
2023-02-11T20:05:17.756Z,96402.94
2023-02-11T20:07:47.096Z,96425.69
2023-02-11T20:10:14.998Z,96427.94
2023-02-11T20:12:42.958Z,96398.50
2023-02-11T20:15:11.491Z,96420.44
2023-02-11T20:17:39.379Z,96423.19
2023-02-11T20:20:08.289Z,96426.22
2023-02-11T20:22:36.454Z,96419.38
2023-02-11T20:25:06.328Z,96422.25
2023-02-11T20:27:34.532Z,96416.16
2023-02-11T20:30:02.460Z,96417.28
2023-02-11T20:32:32.799Z,96414.63
2023-02-11T20:35:00.772Z,96412.44
2023-02-11T20:37:29.835Z,96402.97
2023-02-11T20:39:58.895Z,96405.06
2023-02-11T20:42:28.293Z,96404.28
2023-02-11T20:44:56.365Z,96392.47
2023-02-11T20:47:24.208Z,96395.22
2023-02-11T20:49:52.249Z,96395.69
2023-02-11T20:52:20.334Z,96403.09
2023-02-11T20:54:48.688Z,96384.44
2023-02-11T20:57:16.851Z,96216.78
2023-02-11T20:59:46.285Z,96388.16
2023-02-11T21:02:14.674Z,96375.28
2023-02-11T21:04:42.901Z,96371.34
2023-02-11T21:07:12.164Z,96363.06
2023-02-11T21:09:41.384Z,96311.16
2023-02-11T21:12:09.701Z,96356.97
2023-02-11T21:14:38.816Z,96328.47
2023-02-11T21:17:11.058Z,96346.16
2023-02-11T21:19:39.277Z,96348.19
2023-02-11T21:22:07.160Z,96335.63
2023-02-11T21:24:35.246Z,96328.72
2023-02-11T21:27:04.169Z,96333.16
2023-02-11T21:29:32.051Z,96344.56
2023-02-11T21:31:59.922Z,96343.28
2023-02-11T21:34:29.277Z,96329.38
2023-02-11T21:36:57.213Z,96319.19
2023-02-11T21:39:25.086Z,96332.47
2023-02-11T21:41:53.327Z,96316.66
2023-02-11T21:44:21.146Z,96344.13
2023-02-11T21:46:49.106Z,96336.50
2023-02-11T21:49:17.326Z,96349.94
2023-02-11T21:51:46.766Z,96327.69
2023-02-11T21:54:14.657Z,96345.41
2023-02-11T21:56:42.566Z,96342.50
2023-02-11T21:59:13.880Z,96350.53
2023-02-11T22:01:41.781Z,96342.19
2023-02-11T22:04:10.928Z,96337.38
2023-02-11T22:06:39.543Z,96333.88
2023-02-11T22:09:10.863Z,96322.75
2023-02-11T22:11:38.779Z,96353.38
2023-02-11T22:14:07.061Z,96356.13
2023-02-11T22:16:35.064Z,96355.41
2023-02-11T22:19:03.446Z,96364.19
2023-02-11T22:21:31.703Z,96361.78
2023-02-11T22:23:59.809Z,96345.91
2023-02-11T22:26:29.402Z,96365.53
2023-02-11T22:28:57.736Z,96360.06
2023-02-11T22:31:28.437Z,96367.84
2023-02-11T22:33:57.736Z,96354.28
2023-02-11T22:36:28.340Z,96358.78
2023-02-11T22:38:57.532Z,96354.03
2023-02-11T22:41:25.656Z,96347.38
2023-02-11T22:43:54.866Z,96343.25
2023-02-11T22:46:23.110Z,96285.06
2023-02-11T22:48:51.595Z,96319.56
2023-02-11T22:51:22.438Z,96343.13
2023-02-11T22:53:53.877Z,96330.97
2023-02-11T22:56:22.225Z,96246.91
2023-02-11T22:58:50.796Z,96336.84
2023-02-11T23:01:21.232Z,96342.22
2023-02-11T23:03:49.392Z,96355.59
2023-02-11T23:06:18.054Z,96353.50
2023-02-11T23:08:47.127Z,96341.34
2023-02-11T23:11:17.341Z,96333.78
2023-02-11T23:13:46.725Z,96323.91
2023-02-11T23:16:16.569Z,96321.38
2023-02-11T23:18:47.169Z,96330.97
2023-02-11T23:21:17.504Z,96298.50
2023-02-11T23:23:45.977Z,96342.88
2023-02-11T23:26:16.133Z,96326.66
2023-02-11T23:28:45.970Z,96315.16
2023-02-11T23:31:16.057Z,96305.81
2023-02-11T23:33:46.528Z,96207.41
2023-02-11T23:36:14.872Z,96298.97
2023-02-11T23:38:43.518Z,96295.75
2023-02-11T23:41:13.371Z,96303.16
2023-02-11T23:43:41.747Z,96299.97
2023-02-11T23:46:11.283Z,96297.22
2023-02-11T23:48:40.560Z,96307.28
2023-02-11T23:51:10.673Z,96289.34
2023-02-11T23:53:39.421Z,96285.25
2023-02-11T23:56:09.412Z,96295.59
2023-02-11T23:58:37.632Z,96137.22
